weather.gov     
National Weather Service

Terminal Aerodrome Forecast
NWS Homepage
This page is being discontinued on March 12, 2014.
The same data is available at this site. Please update your bookmarks.
Thank you, and we apologize for the inconvenience.
Please send an email to SR-SRH.Webmaster@noaa.gov with any concerns.


Current Version
Previous Version:    01  02  03  04  05  06  07  08  09  10  11  12  13  14  15  16  17  18  19  20  21  22  23  24  25  26  27  28  29  30  
   31  32  33  34  35  36  37  
[Printable]
615
FTUS41 KALY 240200 AAA
TAFALB
TAF AMD
KALB 240203Z 2402/2424 18010G16KT P6SM BKN090 OVC250
     FM240500 15005KT P6SM BKN035 OVC060
     FM240700 16006KT 5SM -RA BR SCT020 OVC035 WS020/17045KT
     FM240900 15007KT 4SM -SHRA BR OVC020 WS020/17050KT
     FM241100 17005KT 2SM -RA BR BKN008 OVC015 WS020/16050KT
     FM241500 18013G22KT 3SM -RA BR SCT003 OVC008
     FM241800 19016G25KT P6SM VCSH SCT008 OVC015=


U.S. Dept. of Commerce
NOAA National Weather Service
1325 East West Highway
Silver Spring, MD 20910
E-mail: w-nws.webmaster@noaa.gov
Page last modified: May 16, 2007
NATIONAL WEATHER SERVICE: for Safety, for Work, for Fun - FOR LIFE